Time;durP1;ratioP1;P1;durP2;ratioP2;P2;SDS_P1;SDS_P2;PMS_P1;PMS_P2;Temp;Humidity;BMP_temperature;BMP_pressure;BME280_temperature;BME280_humidity;BME280_pressure;Samples;Min_cycle;Max_cycle;Signal;HPM_P1;HPM_P2
2022/02/06 00:00:11;;;;;;;54.13;30.45;;;6.20;99.90;;;;;;6158635;23;20333;-80
2022/02/06 00:02:42;;;;;;;53.63;31.02;;;6.20;99.90;;;;;;6184752;23;20376;-80
2022/02/06 00:05:11;;;;;;;53.72;30.88;;;6.20;99.90;;;;;;6185221;23;20033;-81
2022/02/06 00:07:36;;;;;;;49.72;29.67;;;6.20;99.90;;;;;;6185389;23;20004;-80
2022/02/06 00:10:03;;;;;;;55.28;31.02;;;6.20;99.90;;;;;;6185401;23;20385;-80
2022/02/06 00:12:29;;;;;;;53.55;30.23;;;6.20;99.90;;;;;;6185231;23;20333;-80
2022/02/06 00:14:54;;;;;;;55.65;29.65;;;6.20;99.90;;;;;;6185277;23;20004;-80
2022/02/06 00:17:20;;;;;;;53.13;30.00;;;6.10;99.90;;;;;;6158663;23;20001;-80
2022/02/06 00:19:46;;;;;;;56.50;30.75;;;6.10;99.90;;;;;;6185272;23;20024;-80
2022/02/06 00:22:24;;;;;;;53.28;29.38;;;6.10;99.90;;;;;;6185143;23;20001;-80
2022/02/06 00:25:13;;;;;;;56.25;30.70;;;6.20;99.90;;;;;;6185194;23;20029;-80
2022/02/06 00:33:05;;;;;;;49.42;28.52;;;6.10;99.90;;;;;;6185937;23;20009;-81
2022/02/06 00:43:30;;;;;;;53.10;30.52;;;6.00;99.90;;;;;;6185584;23;20108;-80
2022/02/06 00:45:56;;;;;;;52.13;29.20;;;6.00;99.90;;;;;;6183666;23;20374;-80
2022/02/06 00:48:25;;;;;;;52.53;29.08;;;5.90;99.90;;;;;;6183593;23;20009;-80
2022/02/06 00:51:05;;;;;;;51.67;29.38;;;5.90;99.90;;;;;;6157258;23;20016;-80
2022/02/06 00:53:31;;;;;;;48.17;27.90;;;6.00;99.90;;;;;;6157312;23;20395;-80
2022/02/06 00:55:58;;;;;;;53.90;30.77;;;5.90;99.90;;;;;;6159412;23;20008;-80
2022/02/06 00:58:24;;;;;;;53.83;29.95;;;5.90;99.90;;;;;;6159490;23;20005;-80
2022/02/06 01:00:50;;;;;;;55.00;29.77;;;5.90;99.90;;;;;;6185562;23;20451;-80
2022/02/06 01:03:16;;;;;;;47.67;27.73;;;5.90;99.90;;;;;;6158919;23;20495;-80
2022/02/06 01:05:42;;;;;;;53.28;29.58;;;5.90;99.90;;;;;;6185277;23;20012;-81
2022/02/06 01:08:08;;;;;;;53.97;29.48;;;5.90;99.90;;;;;;6185100;23;20005;-80
2022/02/06 01:10:34;;;;;;;49.80;27.35;;;5.90;99.90;;;;;;6185513;23;20365;-79
2022/02/06 01:13:14;;;;;;;53.13;30.45;;;5.90;99.90;;;;;;6185227;23;20092;-80
2022/02/06 01:15:46;;;;;;;56.03;28.52;;;5.90;99.90;;;;;;6159044;23;20422;-80
2022/02/06 01:18:19;;;;;;;50.35;29.92;;;5.90;99.90;;;;;;6185485;23;20005;-80
2022/02/06 01:20:54;;;;;;;50.65;27.73;;;5.90;99.90;;;;;;6158924;23;20011;-81
2022/02/06 01:23:27;;;;;;;56.67;30.27;;;5.90;99.90;;;;;;6158841;23;20021;-80
2022/02/06 01:26:15;;;;;;;52.47;28.60;;;5.90;99.90;;;;;;6185120;23;20008;-80
2022/02/06 01:28:47;;;;;;;53.60;30.40;;;5.90;99.90;;;;;;6185144;23;20005;-79
2022/02/06 01:33:47;;;;;;;59.95;30.73;;;5.90;99.90;;;;;;6187203;23;20065;-80
2022/02/06 01:41:28;;;;;;;53.97;30.73;;;5.90;99.90;;;;;;6187017;23;20060;-80
2022/02/06 01:44:01;;;;;;;56.42;30.10;;;5.80;99.90;;;;;;6184844;23;20020;-80
2022/02/06 02:46:56;;;;;;;56.03;33.10;;;5.80;99.90;;;;;;6138275;23;20437;-80
2022/02/06 02:49:25;;;;;;;60.60;34.17;;;5.80;99.90;;;;;;6158047;23;20015;-80
2022/02/06 02:51:57;;;;;;;60.47;32.72;;;5.70;99.90;;;;;;6157922;23;20138;-80
2022/02/06 02:54:26;;;;;;;;;;;5.70;99.90;;;;;;6184807;23;20059;-80
2022/02/06 02:57:05;;;;;;;64.68;35.97;;;5.70;99.90;;;;;;6184261;23;19904;-80
2022/02/06 03:00:18;;;;;;;58.75;35.38;;;5.70;99.90;;;;;;6184131;23;20500;-80
2022/02/06 03:02:22;;;;;;;65.35;36.30;;;5.70;99.90;;;;;;6179320;23;20496;-80
2022/02/06 03:04:53;;;;;;;62.70;34.95;;;5.70;99.90;;;;;;6183990;23;20029;-80
2022/02/06 03:07:19;;;;;;;59.33;33.25;;;5.70;99.90;;;;;;6184150;23;20433;-80
2022/02/06 03:09:46;;;;;;;63.65;35.40;;;5.70;99.90;;;;;;6183973;23;20005;-80
2022/02/06 03:12:14;;;;;;;59.05;34.15;;;5.70;99.90;;;;;;6157527;23;20157;-80
2022/02/06 03:14:46;;;;;;;62.75;34.63;;;5.70;99.90;;;;;;6184065;23;20027;-80
2022/02/06 03:17:21;;;;;;;58.97;33.03;;;5.70;99.90;;;;;;6183768;23;20025;-80
2022/02/06 03:19:54;;;;;;;68.68;34.60;;;5.70;99.90;;;;;;6184191;23;20008;-80
2022/02/06 03:22:24;;;;;;;58.15;34.72;;;5.70;99.90;;;;;;6157432;23;20009;-80
2022/02/06 03:24:55;;;;;;;61.08;34.28;;;5.70;99.90;;;;;;6157604;23;20008;-80
2022/02/06 03:27:21;;;;;;;58.97;34.38;;;5.60;99.90;;;;;;6183944;23;20008;-80
2022/02/06 03:29:47;;;;;;;63.05;34.28;;;5.60;99.90;;;;;;6183974;23;19993;-80
2022/02/06 03:32:12;;;;;;;62.60;35.47;;;5.60;99.90;;;;;;6183786;23;20238;-79
2022/02/06 03:34:38;;;;;;;59.45;33.00;;;5.60;99.90;;;;;;6157793;23;20013;-80
2022/02/06 03:37:04;;;;;;;65.15;34.95;;;5.60;99.90;;;;;;6184004;23;20057;-80
2022/02/06 03:39:34;;;;;;;58.63;34.40;;;5.60;99.90;;;;;;6183774;23;20008;-79
2022/02/06 03:42:14;;;;;;;60.60;34.03;;;5.60;99.90;;;;;;6183627;23;20349;-80
2022/02/06 03:47:34;;;;;;;62.45;34.40;;;5.60;99.90;;;;;;6186291;23;20016;-80
2022/02/06 03:50:03;;;;;;;61.55;31.98;;;5.70;99.90;;;;;;6180673;23;20036;-80
2022/02/06 03:52:35;;;;;;;57.42;30.92;;;5.70;99.90;;;;;;6183578;23;20447;-80
2022/02/06 03:55:01;;;;;;;61.60;33.47;;;5.70;99.90;;;;;;6183558;23;20425;-80
2022/02/06 03:57:27;;;;;;;60.97;33.97;;;5.60;99.90;;;;;;6183548;23;20072;-80
2022/02/06 03:59:52;;;;;;;57.10;32.75;;;5.70;99.90;;;;;;6183581;23;19997;-80
2022/02/06 04:02:18;;;;;;;62.22;32.05;;;5.70;99.90;;;;;;6183666;23;20001;-80
2022/02/06 04:04:44;;;;;;;54.50;30.20;;;5.70;99.90;;;;;;6183530;23;20076;-80
2022/02/06 04:07:12;;;;;;;58.60;31.80;;;5.70;99.90;;;;;;6183504;23;20033;-80
2022/02/06 04:09:52;;;;;;;56.95;31.13;;;5.60;99.90;;;;;;6183544;23;20459;-80
2022/02/06 04:12:19;;;;;;;56.30;32.13;;;5.70;99.90;;;;;;6183491;23;20055;-80
2022/02/06 04:14:57;;;;;;;56.55;32.10;;;5.60;99.90;;;;;;6183386;23;20001;-80
2022/02/06 04:17:42;;;;;;;58.88;31.27;;;5.60;99.90;;;;;;6156901;23;20001;-80
2022/02/06 04:20:09;;;;;;;56.70;30.23;;;5.60;99.90;;;;;;6183485;23;20001;-80
2022/02/06 04:22:34;;;;;;;57.40;29.52;;;5.60;99.90;;;;;;6183318;23;20001;-80
2022/02/06 04:25:00;;;;;;;57.45;30.60;;;5.60;99.90;;;;;;6157132;23;19997;-80
2022/02/06 04:27:30;;;;;;;52.67;30.50;;;5.60;99.90;;;;;;6156715;23;20005;-80
2022/02/06 04:29:56;;;;;;;52.25;30.10;;;5.50;99.90;;;;;;6183298;23;20000;-80
2022/02/06 04:32:22;;;;;;;54.25;29.52;;;5.50;99.90;;;;;;6183104;23;20001;-80
2022/02/06 04:34:52;;;;;;;54.03;28.35;;;5.50;99.90;;;;;;6183178;23;20464;-80
2022/02/06 04:53:14;;;;;;;51.65;29.85;;;5.50;99.90;;;;;;6186219;23;20069;-80
2022/02/06 05:30:22;;;;;;;51.03;29.00;;;5.40;99.90;;;;;;6185338;23;20005;-80
2022/02/06 05:32:18;;;;;;;47.13;27.67;;;5.40;99.90;;;;;;6156389;23;20345;-80
2022/02/06 05:34:44;;;;;;;48.55;28.08;;;5.30;99.90;;;;;;6183518;23;19997;-80
2022/02/06 05:37:10;;;;;;;45.88;28.45;;;5.30;99.90;;;;;;6183674;23;20028;-81
2022/02/06 05:39:36;;;;;;;52.28;27.85;;;5.30;99.90;;;;;;6184048;23;20337;-81
2022/02/06 05:42:02;;;;;;;46.50;26.30;;;5.30;99.90;;;;;;6185189;23;19997;-80
2022/02/06 05:44:28;;;;;;;45.92;27.95;;;5.30;99.90;;;;;;6185215;23;20079;-81
2022/02/06 05:46:54;;;;;;;48.58;27.33;;;5.30;99.90;;;;;;6185434;23;20001;-81
2022/02/06 05:49:19;;;;;;;45.83;27.08;;;5.30;99.90;;;;;;6185571;23;20047;-80
2022/02/06 05:51:47;;;;;;;51.03;27.30;;;5.30;99.90;;;;;;6185665;23;20451;-80
2022/02/06 05:54:14;;;;;;;44.92;26.10;;;5.30;99.90;;;;;;6158922;23;20001;-80
2022/02/06 05:56:40;;;;;;;47.35;25.88;;;5.30;99.90;;;;;;6184824;23;20120;-80
2022/02/06 05:59:09;;;;;;;49.40;29.85;;;5.30;99.90;;;;;;6184635;23;20437;-79
2022/02/06 06:01:34;;;;;;;49.17;27.65;;;5.20;99.90;;;;;;6158488;23;20002;-80
2022/02/06 06:04:00;;;;;;;50.53;29.88;;;5.20;99.90;;;;;;6184609;23;20380;-80
2022/02/06 06:06:26;;;;;;;46.25;28.30;;;5.20;99.90;;;;;;6157845;23;20012;-80
2022/02/06 06:08:51;;;;;;;49.15;29.05;;;5.20;99.90;;;;;;6158332;23;20487;-80
2022/02/06 06:11:18;;;;;;;49.92;28.20;;;5.20;99.90;;;;;;6184632;23;20451;-80
2022/02/06 06:13:44;;;;;;;50.70;29.13;;;5.20;99.90;;;;;;6158000;23;20194;-80
2022/02/06 06:16:10;;;;;;;46.90;28.60;;;5.20;99.90;;;;;;6184865;23;20024;-80
2022/02/06 06:18:36;;;;;;;49.38;29.60;;;5.20;99.90;;;;;;6158187;23;20055;-80
2022/02/06 06:21:03;;;;;;;47.50;28.83;;;5.10;99.90;;;;;;6184471;23;20101;-80
2022/02/06 06:23:29;;;;;;;50.92;27.77;;;5.10;99.90;;;;;;6184623;23;20441;-80
2022/02/06 06:25:54;;;;;;;51.22;29.45;;;5.20;99.90;;;;;;6184308;23;20008;-80
2022/02/06 06:28:20;;;;;;;48.40;29.13;;;5.10;99.90;;;;;;6184309;23;20012;-80
2022/02/06 06:30:46;;;;;;;49.63;29.20;;;5.10;99.90;;;;;;6184688;23;20005;-80
2022/02/06 06:33:12;;;;;;;53.95;29.63;;;5.10;99.90;;;;;;6184048;23;20008;-81
2022/02/06 06:35:39;;;;;;;55.67;29.83;;;5.10;99.90;;;;;;6184034;23;20055;-80
2022/02/06 06:38:05;;;;;;;54.50;31.15;;;5.10;99.90;;;;;;6184473;23;20421;-80
2022/02/06 06:40:31;;;;;;;49.10;29.17;;;5.10;99.90;;;;;;6184266;23;20004;-79
2022/02/06 06:42:57;;;;;;;51.53;29.98;;;5.10;99.90;;;;;;6183933;23;20016;-81
2022/02/06 06:45:23;;;;;;;54.20;32.28;;;5.10;99.90;;;;;;6184389;23;20001;-81
2022/02/06 06:47:57;;;;;;;57.60;33.20;;;5.10;99.90;;;;;;6184539;23;20005;-81
2022/02/06 06:50:32;;;;;;;59.67;32.20;;;5.10;99.90;;;;;;6184352;23;20499;-81
2022/02/06 06:52:59;;;;;;;53.58;29.70;;;5.20;99.90;;;;;;6157533;23;20460;-80
2022/02/06 06:55:27;;;;;;;51.22;29.85;;;5.20;99.90;;;;;;6184096;23;20072;-81
2022/02/06 06:58:03;;;;;;;49.85;29.80;;;5.20;99.90;;;;;;6184197;23;20005;-81
2022/02/06 07:00:56;;;;;;;52.40;29.17;;;5.10;99.90;;;;;;6184294;23;19997;-80
2022/02/06 07:03:22;;;;;;;;;;;5.10;99.90;;;;;;6184626;23;20036;-80
2022/02/06 07:05:49;;;;;;;50.67;30.95;;;5.20;99.90;;;;;;6184015;23;20313;-80
2022/02/06 07:08:19;;;;;;;55.15;31.80;;;5.10;99.90;;;;;;6183881;23;20033;-81
2022/02/06 07:10:46;;;;;;;49.20;29.92;;;5.10;99.90;;;;;;6183422;23;20131;-80
2022/02/06 07:13:13;;;;;;;52.83;29.88;;;5.20;99.90;;;;;;6157243;23;20009;-80
2022/02/06 07:15:39;;;;;;;55.88;31.55;;;5.20;99.90;;;;;;6183666;23;20001;-80
2022/02/06 07:18:05;;;;;;;49.67;30.63;;;5.20;99.90;;;;;;6157317;23;20449;-80
2022/02/06 07:20:33;;;;;;;53.55;29.83;;;5.20;99.90;;;;;;6183249;23;20024;-80
2022/02/06 07:22:59;;;;;;;50.65;28.60;;;5.20;99.90;;;;;;6182060;23;20434;-80
2022/02/06 07:25:26;;;;;;;51.22;28.20;;;5.20;99.90;;;;;;6182168;23;20005;-80
2022/02/06 07:27:53;;;;;;;49.38;30.48;;;5.30;99.90;;;;;;6156128;23;20009;-81
2022/02/06 07:30:19;;;;;;;54.72;30.63;;;5.30;99.90;;;;;;6156071;23;20012;-80
2022/02/06 07:32:45;;;;;;;50.53;28.75;;;5.30;99.90;;;;;;6156050;23;20009;-80
2022/02/06 07:35:12;;;;;;;56.30;28.95;;;5.40;99.90;;;;;;6183729;23;19997;-80
2022/02/06 07:37:45;;;;;;;57.05;32.50;;;5.40;99.90;;;;;;6182652;23;20081;-81
2022/02/06 07:40:12;;;;;;;69.85;37.40;;;5.50;99.90;;;;;;6183805;23;20075;-81
2022/02/06 07:42:38;;;;;;;63.95;34.17;;;5.50;99.90;;;;;;6183450;23;20013;-80
2022/02/06 07:45:05;;;;;;;71.30;37.63;;;5.50;99.90;;;;;;6183674;23;20016;-80
2022/02/06 07:47:31;;;;;;;69.05;38.58;;;5.50;99.90;;;;;;6156537;23;20349;-73
2022/02/06 07:50:01;;;;;;;69.43;36.92;;;5.50;99.90;;;;;;6183027;23;20080;-73
2022/02/06 07:52:27;;;;;;;58.70;34.00;;;5.60;99.90;;;;;;6183364;23;20008;-80
2022/02/06 07:54:53;;;;;;;52.67;30.23;;;5.60;99.90;;;;;;6182857;23;20478;-80
2022/02/06 07:57:19;;;;;;;61.13;32.53;;;5.70;99.90;;;;;;6183916;23;20005;-80
2022/02/06 07:59:45;;;;;;;76.90;41.05;;;5.70;99.90;;;;;;6156180;23;20025;-80
2022/02/06 08:02:13;;;;;;;76.00;40.72;;;5.80;99.90;;;;;;6154089;23;20063;-81
2022/02/06 08:04:39;;;;;;;77.65;41.22;;;5.80;99.90;;;;;;6179652;23;20379;-81
2022/02/06 08:07:06;;;;;;;81.60;41.88;;;5.80;99.90;;;;;;6179477;23;20005;-81
2022/02/06 08:12:05;;;;;;;88.85;45.50;;;5.90;99.90;;;;;;6181300;23;20092;-80
2022/02/06 08:14:55;;;;;;;94.90;47.63;;;6.00;99.90;;;;;;6152736;23;20001;-80
2022/02/06 08:17:26;;;;;;;88.78;46.15;;;6.10;99.90;;;;;;6181372;23;20120;-80
2022/02/06 08:19:52;;;;;;;84.50;46.45;;;6.10;99.90;;;;;;6157156;23;20001;-81
2022/02/06 08:22:18;;;;;;;89.45;48.72;;;6.20;99.90;;;;;;6183613;23;20055;-81
2022/02/06 08:24:45;;;;;;;88.97;46.88;;;6.20;99.90;;;;;;6183434;23;20000;-80
2022/02/06 08:27:10;;;;;;;90.60;47.63;;;6.30;99.90;;;;;;6183419;23;20421;-80
2022/02/06 08:29:39;;;;;;;85.68;45.05;;;6.40;99.90;;;;;;6183399;23;20001;-81
2022/02/06 08:32:08;;;;;;;82.10;44.08;;;6.50;99.90;;;;;;6156499;23;20008;-80
2022/02/06 08:34:34;;;;;;;78.38;41.42;;;6.60;99.90;;;;;;6183262;23;20084;-80
2022/02/06 08:37:02;;;;;;;73.07;41.22;;;6.70;99.90;;;;;;6156938;23;20525;-81
2022/02/06 08:39:30;;;;;;;83.85;43.42;;;6.70;99.90;;;;;;6156880;23;20047;-80
2022/02/06 08:41:55;;;;;;;84.47;46.28;;;6.80;99.90;;;;;;6183027;23;20001;-81
2022/02/06 08:44:21;;;;;;;82.97;42.47;;;6.90;99.90;;;;;;6183334;23;20052;-81
2022/02/06 08:46:47;;;;;;;88.55;43.13;;;7.00;99.90;;;;;;6183449;23;20035;-81
2022/02/06 08:49:14;;;;;;;79.00;41.83;;;7.10;99.90;;;;;;6156963;23;20008;-81
2022/02/06 08:51:40;;;;;;;75.63;42.60;;;7.10;99.90;;;;;;6183171;23;20056;-81
2022/02/06 08:54:06;;;;;;;76.25;41.78;;;7.10;99.90;;;;;;6182954;23;20001;-80
2022/02/06 08:56:38;;;;;;;80.53;42.00;;;7.10;99.90;;;;;;6183119;23;20007;-81
2022/02/06 08:59:04;;;;;;;81.10;45.17;;;7.20;99.90;;;;;;6156667;23;20448;-80
2022/02/06 09:01:30;;;;;;;84.70;44.50;;;7.20;99.90;;;;;;6183097;23;20009;-80
2022/02/06 09:03:56;;;;;;;85.63;45.22;;;7.20;99.90;;;;;;6156598;23;20013;-81
2022/02/06 09:06:21;;;;;;;88.00;45.40;;;7.20;99.90;;;;;;6183291;23;20376;-79
2022/02/06 09:08:53;;;;;;;91.43;46.25;;;7.20;99.90;;;;;;6156966;23;20020;-81
2022/02/06 09:11:19;;;;;;;88.53;45.75;;;7.30;99.90;;;;;;6156813;23;20009;-80
2022/02/06 09:13:46;;;;;;;84.60;46.53;;;7.30;99.90;;;;;;6182936;23;20434;-75
2022/02/06 09:16:12;;;;;;;96.18;45.95;;;7.40;99.90;;;;;;6183343;23;20080;-73
2022/02/06 09:18:38;;;;;;;92.68;46.58;;;7.40;99.90;;;;;;6184097;23;20002;-73
2022/02/06 09:21:04;;;;;;;87.68;45.50;;;7.40;99.90;;;;;;6184461;23;20052;-73
2022/02/06 09:23:29;;;;;;;85.28;45.70;;;7.50;99.90;;;;;;6182781;23;20440;-73
2022/02/06 09:25:55;;;;;;;87.93;46.13;;;7.50;99.90;;;;;;6156415;23;20009;-73
2022/02/06 09:28:21;;;;;;;86.55;46.20;;;7.60;99.90;;;;;;6182644;23;20001;-73
2022/02/06 09:30:47;;;;;;;85.53;47.30;;;7.60;99.90;;;;;;6180660;23;20012;-73
2022/02/06 09:35:38;;;;;;;84.35;44.85;;;7.70;99.90;;;;;;6185070;23;20012;-73
2022/02/06 09:38:05;;;;;;;75.25;43.03;;;7.70;99.90;;;;;;6157751;23;20005;-73
2022/02/06 09:40:37;;;;;;;79.55;42.08;;;7.80;99.90;;;;;;6157922;23;20543;-73
2022/02/06 09:43:05;;;;;;;77.47;41.13;;;7.80;99.90;;;;;;6184074;23;20017;-73
2022/02/06 09:45:33;;;;;;;82.82;41.72;;;7.80;99.90;;;;;;6184877;23;20338;-73
2022/02/06 09:48:00;;;;;;;79.05;42.78;;;7.80;99.90;;;;;;6158392;23;20059;-73
2022/02/06 09:50:27;;;;;;;82.50;43.78;;;7.80;99.90;;;;;;6184636;23;20502;-73
2022/02/06 09:52:54;;;;;;;79.38;43.67;;;7.90;99.90;;;;;;6184713;23;20011;-73
2022/02/06 09:55:22;;;;;;;84.63;44.25;;;7.80;99.90;;;;;;6184655;23;20002;-74
2022/02/06 09:58:12;;;;;;;90.25;44.05;;;7.90;99.90;;;;;;6158572;23;20006;-73
2022/02/06 10:00:38;;;;;;;83.97;43.70;;;7.90;99.90;;;;;;6157876;23;20001;-73
2022/02/06 10:03:10;;;;;;;84.50;43.80;;;7.90;99.90;;;;;;6184020;23;20064;-73
2022/02/06 10:05:39;;;;;;;81.25;40.53;;;8.00;99.90;;;;;;6183317;23;20089;-73
2022/02/06 10:08:38;;;;;;;73.80;38.53;;;8.00;99.90;;;;;;6182146;23;20001;-73
2022/02/06 10:11:14;;;;;;;73.47;37.97;;;8.10;99.90;;;;;;6156467;23;20005;-73
2022/02/06 10:13:41;;;;;;;71.15;38.10;;;8.10;99.90;;;;;;6182304;23;20005;-73
2022/02/06 10:16:11;;;;;;;69.88;35.65;;;8.10;99.90;;;;;;6182553;23;20080;-74
2022/02/06 10:18:38;;;;;;;60.13;32.42;;;8.10;99.90;;;;;;6182682;23;20005;-73
2022/02/06 10:21:06;;;;;;;59.85;31.08;;;8.20;99.90;;;;;;6155984;23;20425;-73
2022/02/06 10:23:39;;;;;;;57.30;31.08;;;8.30;99.90;;;;;;6156132;23;20413;-74
2022/02/06 10:26:25;;;;;;;53.95;29.10;;;8.30;99.90;;;;;;6156657;23;20349;-73
2022/02/06 10:31:42;;;;;;;51.33;28.55;;;8.30;99.90;;;;;;6178303;23;20032;-74
2022/02/06 10:34:23;;;;;;;54.30;27.42;;;8.30;99.90;;;;;;6152593;23;20024;-74
2022/02/06 10:36:49;;;;;;;35.22;20.02;;;8.30;99.90;;;;;;6153241;23;20006;-73
2022/02/06 10:39:17;;;;;;;34.83;18.60;;;8.40;99.90;;;;;;6178794;23;20005;-74
2022/02/06 10:41:45;;;;;;;35.00;17.08;;;8.40;99.90;;;;;;6178612;23;20011;-74
2022/02/06 10:44:11;;;;;;;37.65;18.58;;;8.40;99.90;;;;;;6179705;23;20017;-74
2022/02/06 10:46:53;;;;;;;40.47;20.27;;;8.40;99.90;;;;;;6178677;23;20008;-73
2022/02/06 10:49:24;;;;;;;34.53;20.40;;;8.40;99.90;;;;;;6184856;23;20001;-78
2022/02/06 10:52:12;;;;;;;40.67;21.10;;;8.30;99.90;;;;;;6183818;23;19997;-78
2022/02/06 10:54:40;;;;;;;38.58;22.05;;;8.30;99.90;;;;;;6183811;23;20005;-79
2022/02/06 10:57:18;;;;;;;40.47;20.90;;;8.30;99.90;;;;;;6184246;23;20008;-78
2022/02/06 10:59:47;;;;;;;45.33;21.80;;;8.30;99.90;;;;;;6156505;23;20012;-73
2022/02/06 11:02:58;;;;;;;45.30;22.92;;;8.30;99.90;;;;;;6182334;23;20076;-73
2022/02/06 11:05:33;;;;;;;44.15;21.88;;;8.40;99.90;;;;;;6183646;23;20012;-73
2022/02/06 11:08:02;;;;;;;47.85;24.70;;;8.40;99.90;;;;;;6183976;23;20136;-73
2022/02/06 11:10:33;;;;;;;46.38;24.17;;;8.50;99.90;;;;;;6183984;23;20333;-73
2022/02/06 11:13:04;;;;;;;47.20;23.30;;;8.50;99.90;;;;;;6183803;23;20005;-73
2022/02/06 11:15:45;;;;;;;48.85;24.02;;;8.50;99.90;;;;;;6184271;23;20023;-73
2022/02/06 11:18:19;;;;;;;48.83;25.00;;;8.60;99.90;;;;;;6184083;23;20017;-73
2022/02/06 11:21:06;;;;;;;51.63;26.08;;;8.60;99.90;;;;;;6184211;23;19997;-73
2022/02/06 11:23:40;;;;;;;51.08;26.25;;;8.60;99.90;;;;;;6184012;23;20001;-73
2022/02/06 11:26:31;;;;;;;51.25;28.17;;;8.60;99.90;;;;;;6157722;23;20464;-73
2022/02/06 11:28:59;;;;;;;72.03;34.15;;;8.70;99.90;;;;;;6183245;23;20382;-73
2022/02/06 11:31:26;;;;;;;81.78;35.28;;;8.80;99.90;;;;;;6183796;23;20001;-73
2022/02/06 11:33:51;;;;;;;78.50;34.95;;;8.90;99.90;;;;;;6183906;23;20344;-73
2022/02/06 11:36:24;;;;;;;102.43;44.03;;;9.00;99.90;;;;;;6183921;23;19997;-73
2022/02/06 11:45:13;;;;;;;117.95;52.20;;;8.90;99.90;;;;;;6183833;23;20519;-73
2022/02/06 11:47:57;;;;;;;112.97;49.40;;;9.00;99.90;;;;;;6157433;23;20013;-73
2022/02/06 11:50:23;;;;;;;122.00;54.25;;;9.00;99.90;;;;;;6183730;23;20008;-73
2022/02/06 11:52:55;;;;;;;121.90;53.58;;;9.10;99.90;;;;;;6183557;23;20008;-73
2022/02/06 11:55:44;;;;;;;113.57;52.78;;;9.10;99.90;;;;;;6156408;23;20005;-73
2022/02/06 11:58:35;;;;;;;117.53;53.13;;;9.00;99.90;;;;;;6183742;23;20460;-73
2022/02/06 12:01:06;;;;;;;113.43;53.63;;;9.00;99.90;;;;;;6183560;23;20001;-73
2022/02/06 12:03:53;;;;;;;133.45;57.50;;;9.00;99.90;;;;;;6183461;23;20001;-73
2022/02/06 12:06:20;;;;;;;123.30;54.97;;;9.10;99.90;;;;;;6157310;23;20005;-73
2022/02/06 12:08:58;;;;;;;133.77;57.13;;;9.10;99.90;;;;;;6157493;23;20005;-73
2022/02/06 12:11:24;;;;;;;124.43;54.53;;;9.10;99.90;;;;;;6183451;23;20005;-73
2022/02/06 12:14:16;;;;;;;124.88;55.88;;;9.20;99.90;;;;;;6183408;23;20083;-73
2022/02/06 12:17:20;;;;;;;116.72;53.42;;;9.20;99.90;;;;;;6183720;23;20001;-73
2022/02/06 12:20:09;;;;;;;130.98;55.70;;;9.20;99.90;;;;;;6183231;23;19997;-73
2022/02/06 12:22:38;;;;;;;119.15;55.28;;;9.20;99.90;;;;;;6155970;23;20001;-73
2022/02/06 12:25:17;;;;;;;134.73;59.30;;;9.30;99.90;;;;;;6184085;23;20009;-73
2022/02/06 12:27:44;;;;;;;128.93;55.78;;;9.30;99.90;;;;;;6183836;23;20005;-73
2022/02/06 12:30:19;;;;;;;123.95;55.63;;;9.30;99.90;;;;;;6183879;23;20426;-73
2022/02/06 12:32:45;;;;;;;122.13;55.25;;;9.40;99.90;;;;;;6183423;23;20005;-73
2022/02/06 12:38:02;;;;;;;119.15;54.08;;;9.40;99.90;;;;;;6186997;23;20323;-73
2022/02/06 12:40:28;;;;;;;126.63;55.55;;;9.50;99.90;;;;;;6183787;23;20311;-73
2022/02/06 12:43:02;;;;;;;129.18;56.70;;;9.60;99.90;;;;;;6183243;23;20476;-73
2022/02/06 12:45:29;;;;;;;127.85;57.08;;;9.60;99.90;;;;;;6156214;23;20015;-73
2022/02/06 12:48:07;;;;;;;135.48;56.45;;;9.70;99.90;;;;;;6182907;23;20051;-73
2022/02/06 12:50:36;;;;;;;135.75;58.25;;;9.70;99.90;;;;;;6184578;23;20016;-74
2022/02/06 12:53:05;;;;;;;123.85;57.85;;;9.70;99.90;;;;;;6184325;23;20028;-73
2022/02/06 12:55:33;;;;;;;136.95;57.83;;;9.70;99.90;;;;;;6184153;23;20143;-79
2022/02/06 12:58:00;;;;;;;139.63;59.17;;;9.80;99.90;;;;;;6184925;23;20002;-79
2022/02/06 13:00:48;;;;;;;122.47;55.55;;;9.70;99.90;;;;;;6185398;23;20051;-78
2022/02/06 13:03:35;;;;;;;122.03;54.78;;;9.60;99.90;;;;;;6186428;23;20000;-79
2022/02/06 13:06:04;;;;;;;130.55;56.45;;;9.60;99.90;;;;;;6186450;23;20428;-78
2022/02/06 13:08:34;;;;;;;124.72;56.05;;;9.60;99.90;;;;;;6186752;23;20001;-78
2022/02/06 13:11:05;;;;;;;117.32;54.45;;;9.60;99.90;;;;;;6186196;23;20024;-79
2022/02/06 13:13:44;;;;;;;111.72;53.10;;;9.60;99.90;;;;;;6160168;23;20009;-78
2022/02/06 13:19:26;;;;;;;118.95;54.58;;;9.60;99.90;;;;;;6186908;23;20036;-78
2022/02/06 13:28:44;;;;;;;114.85;51.63;;;9.60;99.90;;;;;;6188026;23;20009;-78
2022/02/06 13:33:14;;;;;;;114.35;50.17;;;9.70;99.90;;;;;;6186466;23;20009;-78
2022/02/06 13:36:37;;;;;;;113.93;51.08;;;9.70;99.90;;;;;;6183052;23;20005;-78
2022/02/06 13:38:33;;;;;;;116.75;52.53;;;9.70;99.90;;;;;;6171736;23;20013;-79
2022/02/06 13:41:01;;;;;;;122.75;54.05;;;9.70;99.90;;;;;;6156334;23;20000;-78
2022/02/06 13:43:37;;;;;;;117.88;53.75;;;9.70;99.90;;;;;;6182291;23;20104;-78
2022/02/06 13:46:12;;;;;;;118.53;52.20;;;9.70;99.90;;;;;;6156176;23;20440;-78
2022/02/06 13:48:38;;;;;;;112.38;51.80;;;9.70;99.90;;;;;;6182705;23;20008;-78
2022/02/06 13:51:05;;;;;;;106.13;52.60;;;9.70;99.90;;;;;;6156482;23;20005;-78
2022/02/06 13:53:33;;;;;;;115.10;49.55;;;9.70;99.90;;;;;;6182651;23;20025;-78
2022/02/06 13:56:03;;;;;;;107.40;50.20;;;9.70;99.90;;;;;;6182919;23;20001;-78
2022/02/06 13:58:30;;;;;;;117.72;52.08;;;9.70;99.90;;;;;;6184920;23;19997;-78
2022/02/06 14:00:56;;;;;;;114.80;52.72;;;9.80;99.90;;;;;;6184559;23;20073;-78
2022/02/06 14:03:23;;;;;;;122.00;52.05;;;9.80;99.90;;;;;;6184604;23;20024;-78
2022/02/06 14:05:50;;;;;;;118.75;53.28;;;9.80;99.90;;;;;;6184723;23;20008;-78
2022/02/06 14:08:20;;;;;;;120.18;54.00;;;9.70;99.90;;;;;;6184555;23;20444;-78
2022/02/06 14:11:02;;;;;;;117.20;55.38;;;9.70;99.90;;;;;;6184591;23;20005;-78
2022/02/06 14:13:29;;;;;;;125.13;56.92;;;9.70;99.90;;;;;;6184513;23;20024;-78
2022/02/06 14:16:10;;;;;;;124.03;57.67;;;9.70;99.90;;;;;;6184481;23;20068;-78
2022/02/06 14:18:51;;;;;;;123.88;54.58;;;9.70;99.90;;;;;;6184412;23;19997;-78
2022/02/06 14:21:17;;;;;;;121.30;54.97;;;9.70;99.90;;;;;;6184580;23;19997;-78
2022/02/06 14:23:43;;;;;;;129.75;57.03;;;9.60;99.90;;;;;;6184673;23;20385;-78
2022/02/06 14:26:14;;;;;;;119.15;54.08;;;9.60;99.90;;;;;;6184514;23;20028;-78
2022/02/06 14:28:49;;;;;;;126.90;58.95;;;9.60;99.90;;;;;;6158229;23;20059;-78
2022/02/06 14:31:26;;;;;;;123.20;57.50;;;9.60;99.90;;;;;;6184333;23;20001;-78
2022/02/06 14:34:12;;;;;;;124.97;58.42;;;9.50;99.90;;;;;;6184498;23;20080;-78
2022/02/06 14:36:38;;;;;;;124.07;55.97;;;9.50;99.90;;;;;;6157899;23;20004;-78
2022/02/06 14:39:04;;;;;;;128.32;56.95;;;9.50;99.90;;;;;;6184478;23;20004;-78
2022/02/06 14:41:59;;;;;;;114.07;54.95;;;9.50;99.90;;;;;;6184275;23;20001;-78
2022/02/06 14:44:26;;;;;;;121.63;54.75;;;9.50;99.90;;;;;;6184237;23;20390;-78
2022/02/06 14:46:51;;;;;;;116.75;53.85;;;9.40;99.90;;;;;;6184429;23;20020;-78
2022/02/06 14:49:18;;;;;;;116.03;54.80;;;9.40;99.90;;;;;;6184330;23;20051;-78
2022/02/06 14:51:44;;;;;;;116.65;53.38;;;9.40;99.90;;;;;;6184356;23;20004;-78
2022/02/06 14:54:12;;;;;;;122.38;57.05;;;9.30;99.90;;;;;;6184246;23;20116;-78
2022/02/06 14:56:42;;;;;;;120.55;53.85;;;9.30;99.90;;;;;;6184195;23;20027;-78
2022/02/06 14:59:08;;;;;;;122.55;56.15;;;9.30;99.90;;;;;;6184338;23;20036;-78
2022/02/06 15:01:34;;;;;;;119.55;55.67;;;9.30;99.90;;;;;;6184062;23;20056;-78
2022/02/06 15:04:00;;;;;;;123.80;56.95;;;9.30;99.90;;;;;;6184298;23;20329;-78
2022/02/06 15:06:25;;;;;;;115.65;55.50;;;9.20;99.90;;;;;;6183886;23;20087;-78
2022/02/06 15:08:53;;;;;;;126.93;57.15;;;9.20;99.90;;;;;;6157746;23;20005;-78
2022/02/06 15:11:19;;;;;;;135.18;59.15;;;9.20;99.90;;;;;;6157572;23;20009;-78
2022/02/06 15:13:45;;;;;;;132.50;57.70;;;9.20;99.90;;;;;;6183661;23;20005;-78
2022/02/06 15:16:18;;;;;;;125.68;58.22;;;9.10;99.90;;;;;;6184263;23;20036;-78
2022/02/06 15:19:00;;;;;;;130.50;61.75;;;9.10;99.90;;;;;;6157535;23;20016;-78
2022/02/06 15:21:26;;;;;;;141.48;59.70;;;9.10;99.90;;;;;;6184020;23;20008;-78
2022/02/06 15:23:51;;;;;;;128.20;58.05;;;9.10;99.90;;;;;;6157763;23;20004;-78
2022/02/06 15:26:17;;;;;;;130.63;60.45;;;9.10;99.90;;;;;;6183966;23;20008;-78
2022/02/06 15:28:45;;;;;;;128.10;59.47;;;9.10;99.90;;;;;;6183927;23;20005;-78
2022/02/06 15:31:11;;;;;;;133.80;61.20;;;9.10;99.90;;;;;;6183883;23;20016;-78
2022/02/06 15:33:37;;;;;;;135.52;60.40;;;9.10;99.90;;;;;;6183787;23;20005;-78